sensor_id;sensor_type;location;lat;lon;timestamp;temperature;humidity
56725;DHT22;42608;52.776;6.968;2023-02-22T00:00:37;8.80;99.90
56725;DHT22;42608;52.776;6.968;2023-02-22T00:05:44;8.80;99.90
56725;DHT22;42608;52.776;6.968;2023-02-22T00:08:16;8.80;99.90
56725;DHT22;42608;52.776;6.968;2023-02-22T00:10:43;8.80;99.90
56725;DHT22;42608;52.776;6.968;2023-02-22T00:13:12;8.80;99.90
56725;DHT22;42608;52.776;6.968;2023-02-22T00:15:39;8.80;99.90
56725;DHT22;42608;52.776;6.968;2023-02-22T00:18:12;8.80;99.90
56725;DHT22;42608;52.776;6.968;2023-02-22T00:20:38;8.80;99.90
56725;DHT22;42608;52.776;6.968;2023-02-22T00:23:13;8.80;99.90
56725;DHT22;42608;52.776;6.968;2023-02-22T00:25:39;8.80;99.90
56725;DHT22;42608;52.776;6.968;2023-02-22T00:28:05;8.80;99.90
56725;DHT22;42608;52.776;6.968;2023-02-22T00:30:32;8.80;99.90
56725;DHT22;42608;52.776;6.968;2023-02-22T00:32:58;8.80;99.90
56725;DHT22;42608;52.776;6.968;2023-02-22T00:35:25;8.80;99.90
56725;DHT22;42608;52.776;6.968;2023-02-22T00:37:54;8.80;99.90
56725;DHT22;42608;52.776;6.968;2023-02-22T00:40:23;8.80;99.90
56725;DHT22;42608;52.776;6.968;2023-02-22T00:42:49;8.80;99.90
56725;DHT22;42608;52.776;6.968;2023-02-22T00:45:21;8.80;99.90
56725;DHT22;42608;52.776;6.968;2023-02-22T00:47:48;8.80;99.90
56725;DHT22;42608;52.776;6.968;2023-02-22T00:50:15;8.80;99.90
56725;DHT22;42608;52.776;6.968;2023-02-22T00:52:41;8.80;99.90
56725;DHT22;42608;52.776;6.968;2023-02-22T00:55:09;8.80;99.90
56725;DHT22;42608;52.776;6.968;2023-02-22T00:57:36;8.80;99.90
56725;DHT22;42608;52.776;6.968;2023-02-22T01:00:07;8.80;99.90
56725;DHT22;42608;52.776;6.968;2023-02-22T01:02:40;8.80;99.90
56725;DHT22;42608;52.776;6.968;2023-02-22T01:05:09;8.80;99.90
56725;DHT22;42608;52.776;6.968;2023-02-22T01:07:37;8.70;99.90
56725;DHT22;42608;52.776;6.968;2023-02-22T01:10:04;8.70;99.90
56725;DHT22;42608;52.776;6.968;2023-02-22T01:12:30;8.70;99.90
56725;DHT22;42608;52.776;6.968;2023-02-22T01:14:56;8.70;99.90
56725;DHT22;42608;52.776;6.968;2023-02-22T01:17:26;8.70;99.90
56725;DHT22;42608;52.776;6.968;2023-02-22T01:19:52;8.70;99.90
56725;DHT22;42608;52.776;6.968;2023-02-22T01:22:19;8.70;99.90
56725;DHT22;42608;52.776;6.968;2023-02-22T01:24:49;8.70;99.90
56725;DHT22;42608;52.776;6.968;2023-02-22T01:27:16;8.80;99.90
56725;DHT22;42608;52.776;6.968;2023-02-22T01:29:42;8.70;99.90
56725;DHT22;42608;52.776;6.968;2023-02-22T01:32:08;8.70;99.90
56725;DHT22;42608;52.776;6.968;2023-02-22T01:34:37;8.80;99.90
56725;DHT22;42608;52.776;6.968;2023-02-22T01:37:03;8.70;99.90
56725;DHT22;42608;52.776;6.968;2023-02-22T01:39:31;8.70;99.90
56725;DHT22;42608;52.776;6.968;2023-02-22T01:41:56;8.70;99.90
56725;DHT22;42608;52.776;6.968;2023-02-22T01:44:31;8.70;99.90
56725;DHT22;42608;52.776;6.968;2023-02-22T01:46:59;8.70;99.90
56725;DHT22;42608;52.776;6.968;2023-02-22T01:49:38;8.70;99.90
56725;DHT22;42608;52.776;6.968;2023-02-22T01:52:08;8.70;99.90
56725;DHT22;42608;52.776;6.968;2023-02-22T01:54:39;8.70;99.90
56725;DHT22;42608;52.776;6.968;2023-02-22T01:57:07;8.70;99.90
56725;DHT22;42608;52.776;6.968;2023-02-22T01:59:39;8.70;99.90
56725;DHT22;42608;52.776;6.968;2023-02-22T02:02:07;8.70;99.90
56725;DHT22;42608;52.776;6.968;2023-02-22T02:04:33;8.70;99.90
56725;DHT22;42608;52.776;6.968;2023-02-22T02:07:04;8.70;99.90
56725;DHT22;42608;52.776;6.968;2023-02-22T02:10:03;8.70;99.90
56725;DHT22;42608;52.776;6.968;2023-02-22T02:12:33;8.70;99.90
56725;DHT22;42608;52.776;6.968;2023-02-22T02:15:30;8.70;99.90
56725;DHT22;42608;52.776;6.968;2023-02-22T02:17:59;8.70;99.90
56725;DHT22;42608;52.776;6.968;2023-02-22T02:20:34;8.70;99.90
56725;DHT22;42608;52.776;6.968;2023-02-22T02:36:50;8.60;99.90
56725;DHT22;42608;52.776;6.968;2023-02-22T02:39:40;8.60;99.90
56725;DHT22;42608;52.776;6.968;2023-02-22T02:42:12;8.60;99.90
56725;DHT22;42608;52.776;6.968;2023-02-22T02:44:47;8.70;99.90
56725;DHT22;42608;52.776;6.968;2023-02-22T02:47:26;8.60;99.90
56725;DHT22;42608;52.776;6.968;2023-02-22T02:52:23;8.60;99.90
56725;DHT22;42608;52.776;6.968;2023-02-22T02:54:52;8.60;99.90
56725;DHT22;42608;52.776;6.968;2023-02-22T02:57:19;8.60;99.90
56725;DHT22;42608;52.776;6.968;2023-02-22T02:59:45;8.60;99.90
56725;DHT22;42608;52.776;6.968;2023-02-22T03:05:43;8.60;99.90
56725;DHT22;42608;52.776;6.968;2023-02-22T03:11:21;8.60;99.90
56725;DHT22;42608;52.776;6.968;2023-02-22T03:14:07;8.60;99.90
56725;DHT22;42608;52.776;6.968;2023-02-22T03:17:03;8.60;99.90
56725;DHT22;42608;52.776;6.968;2023-02-22T03:19:37;8.60;99.90
56725;DHT22;42608;52.776;6.968;2023-02-22T03:22:11;8.60;99.90
56725;DHT22;42608;52.776;6.968;2023-02-22T03:29:47;8.60;99.90
56725;DHT22;42608;52.776;6.968;2023-02-22T03:32:22;8.50;99.90
56725;DHT22;42608;52.776;6.968;2023-02-22T03:35:18;8.60;99.90
56725;DHT22;42608;52.776;6.968;2023-02-22T03:37:45;8.60;99.90
56725;DHT22;42608;52.776;6.968;2023-02-22T03:40:24;8.50;99.90
56725;DHT22;42608;52.776;6.968;2023-02-22T03:43:06;8.50;99.90
56725;DHT22;42608;52.776;6.968;2023-02-22T03:45:33;8.50;99.90
56725;DHT22;42608;52.776;6.968;2023-02-22T03:48:16;8.50;99.90
56725;DHT22;42608;52.776;6.968;2023-02-22T03:50:44;8.50;99.90
56725;DHT22;42608;52.776;6.968;2023-02-22T03:53:10;8.50;99.90
56725;DHT22;42608;52.776;6.968;2023-02-22T03:55:35;8.50;99.90
56725;DHT22;42608;52.776;6.968;2023-02-22T03:58:05;8.50;99.90
56725;DHT22;42608;52.776;6.968;2023-02-22T04:00:34;8.50;99.90
56725;DHT22;42608;52.776;6.968;2023-02-22T04:03:00;8.50;99.90
56725;DHT22;42608;52.776;6.968;2023-02-22T04:05:26;8.50;99.90
56725;DHT22;42608;52.776;6.968;2023-02-22T04:07:52;8.50;99.90
56725;DHT22;42608;52.776;6.968;2023-02-22T04:10:18;8.50;99.90
56725;DHT22;42608;52.776;6.968;2023-02-22T04:12:44;8.50;99.90
56725;DHT22;42608;52.776;6.968;2023-02-22T04:15:19;8.50;99.90
56725;DHT22;42608;52.776;6.968;2023-02-22T04:17:45;8.40;99.90
56725;DHT22;42608;52.776;6.968;2023-02-22T04:20:11;8.40;99.90
56725;DHT22;42608;52.776;6.968;2023-02-22T04:22:44;8.40;99.90
56725;DHT22;42608;52.776;6.968;2023-02-22T04:25:10;8.40;99.90
56725;DHT22;42608;52.776;6.968;2023-02-22T04:27:36;8.50;99.90
56725;DHT22;42608;52.776;6.968;2023-02-22T04:30:01;8.40;99.90
56725;DHT22;42608;52.776;6.968;2023-02-22T04:32:27;8.40;99.90
56725;DHT22;42608;52.776;6.968;2023-02-22T04:34:53;8.40;99.90
56725;DHT22;42608;52.776;6.968;2023-02-22T04:37:18;8.40;99.90
56725;DHT22;42608;52.776;6.968;2023-02-22T04:39:44;8.40;99.90
56725;DHT22;42608;52.776;6.968;2023-02-22T04:42:10;8.40;99.90
56725;DHT22;42608;52.776;6.968;2023-02-22T04:44:35;8.40;99.90
56725;DHT22;42608;52.776;6.968;2023-02-22T04:47:01;8.40;99.90
56725;DHT22;42608;52.776;6.968;2023-02-22T04:49:27;8.40;99.90
56725;DHT22;42608;52.776;6.968;2023-02-22T04:51:52;8.40;99.90
56725;DHT22;42608;52.776;6.968;2023-02-22T04:54:18;8.40;99.90
56725;DHT22;42608;52.776;6.968;2023-02-22T04:56:44;8.30;99.90
56725;DHT22;42608;52.776;6.968;2023-02-22T04:59:10;8.30;99.90
56725;DHT22;42608;52.776;6.968;2023-02-22T05:01:37;8.30;99.90
56725;DHT22;42608;52.776;6.968;2023-02-22T05:04:03;8.30;99.90
56725;DHT22;42608;52.776;6.968;2023-02-22T05:06:29;8.30;99.90
56725;DHT22;42608;52.776;6.968;2023-02-22T05:08:55;8.30;99.90
56725;DHT22;42608;52.776;6.968;2023-02-22T05:11:21;8.30;99.90
56725;DHT22;42608;52.776;6.968;2023-02-22T05:13:47;8.30;99.90
56725;DHT22;42608;52.776;6.968;2023-02-22T05:16:13;8.30;99.90
56725;DHT22;42608;52.776;6.968;2023-02-22T05:18:39;8.30;99.90
56725;DHT22;42608;52.776;6.968;2023-02-22T05:21:05;8.30;99.90
56725;DHT22;42608;52.776;6.968;2023-02-22T05:23:31;8.20;99.90
56725;DHT22;42608;52.776;6.968;2023-02-22T05:25:57;8.20;99.90
56725;DHT22;42608;52.776;6.968;2023-02-22T05:28:23;8.20;99.90
56725;DHT22;42608;52.776;6.968;2023-02-22T05:30:48;8.20;99.90
56725;DHT22;42608;52.776;6.968;2023-02-22T05:33:14;8.20;99.90
56725;DHT22;42608;52.776;6.968;2023-02-22T05:35:40;8.20;99.90
56725;DHT22;42608;52.776;6.968;2023-02-22T05:38:06;8.20;99.90
56725;DHT22;42608;52.776;6.968;2023-02-22T05:40:32;8.10;99.90
56725;DHT22;42608;52.776;6.968;2023-02-22T05:42:59;8.10;99.90
56725;DHT22;42608;52.776;6.968;2023-02-22T05:45:27;8.10;99.90
56725;DHT22;42608;52.776;6.968;2023-02-22T05:47:53;8.10;99.90
56725;DHT22;42608;52.776;6.968;2023-02-22T05:50:20;8.00;99.90
56725;DHT22;42608;52.776;6.968;2023-02-22T05:52:49;8.00;99.90
56725;DHT22;42608;52.776;6.968;2023-02-22T05:55:17;8.00;99.90
56725;DHT22;42608;52.776;6.968;2023-02-22T05:57:43;8.00;99.90
56725;DHT22;42608;52.776;6.968;2023-02-22T06:00:13;8.00;99.90
56725;DHT22;42608;52.776;6.968;2023-02-22T06:02:40;7.90;99.90
56725;DHT22;42608;52.776;6.968;2023-02-22T06:05:06;7.90;99.90
56725;DHT22;42608;52.776;6.968;2023-02-22T06:07:31;7.90;99.90
56725;DHT22;42608;52.776;6.968;2023-02-22T06:09:57;7.90;99.90
56725;DHT22;42608;52.776;6.968;2023-02-22T06:12:23;7.90;99.90
56725;DHT22;42608;52.776;6.968;2023-02-22T06:14:48;8.00;99.90
56725;DHT22;42608;52.776;6.968;2023-02-22T06:17:15;7.90;99.90
56725;DHT22;42608;52.776;6.968;2023-02-22T06:19:40;7.90;99.90
56725;DHT22;42608;52.776;6.968;2023-02-22T06:22:06;7.90;99.90
56725;DHT22;42608;52.776;6.968;2023-02-22T06:24:32;7.90;99.90
56725;DHT22;42608;52.776;6.968;2023-02-22T06:27:00;7.90;99.90
56725;DHT22;42608;52.776;6.968;2023-02-22T06:29:27;7.90;99.90
56725;DHT22;42608;52.776;6.968;2023-02-22T06:31:54;7.90;99.90
56725;DHT22;42608;52.776;6.968;2023-02-22T06:34:20;7.90;99.90
56725;DHT22;42608;52.776;6.968;2023-02-22T06:36:48;7.80;99.90
56725;DHT22;42608;52.776;6.968;2023-02-22T06:39:15;7.80;99.90
56725;DHT22;42608;52.776;6.968;2023-02-22T06:41:44;7.80;99.90
56725;DHT22;42608;52.776;6.968;2023-02-22T06:44:11;7.80;99.90
56725;DHT22;42608;52.776;6.968;2023-02-22T06:46:37;7.80;99.90
56725;DHT22;42608;52.776;6.968;2023-02-22T06:49:03;7.80;99.90
56725;DHT22;42608;52.776;6.968;2023-02-22T06:51:30;7.80;99.90
56725;DHT22;42608;52.776;6.968;2023-02-22T06:54:00;7.80;99.90
56725;DHT22;42608;52.776;6.968;2023-02-22T06:56:25;7.80;99.90
56725;DHT22;42608;52.776;6.968;2023-02-22T06:58:51;7.80;99.90
56725;DHT22;42608;52.776;6.968;2023-02-22T07:01:17;7.80;99.90
56725;DHT22;42608;52.776;6.968;2023-02-22T07:03:42;7.80;99.90
56725;DHT22;42608;52.776;6.968;2023-02-22T07:06:08;7.80;99.90
56725;DHT22;42608;52.776;6.968;2023-02-22T07:08:35;7.70;99.90
56725;DHT22;42608;52.776;6.968;2023-02-22T07:11:01;7.80;99.90
56725;DHT22;42608;52.776;6.968;2023-02-22T07:13:27;7.70;99.90
56725;DHT22;42608;52.776;6.968;2023-02-22T07:15:52;7.70;99.90
56725;DHT22;42608;52.776;6.968;2023-02-22T07:18:18;7.70;99.90
56725;DHT22;42608;52.776;6.968;2023-02-22T07:20:44;7.70;99.90
56725;DHT22;42608;52.776;6.968;2023-02-22T07:23:13;7.70;99.90
56725;DHT22;42608;52.776;6.968;2023-02-22T07:25:39;7.70;99.90
56725;DHT22;42608;52.776;6.968;2023-02-22T07:28:04;7.70;99.90
56725;DHT22;42608;52.776;6.968;2023-02-22T07:30:31;7.70;99.90
56725;DHT22;42608;52.776;6.968;2023-02-22T07:33:09;7.70;99.90
56725;DHT22;42608;52.776;6.968;2023-02-22T07:35:44;7.70;99.90
56725;DHT22;42608;52.776;6.968;2023-02-22T07:38:11;7.70;99.90
56725;DHT22;42608;52.776;6.968;2023-02-22T07:40:38;7.70;99.90
56725;DHT22;42608;52.776;6.968;2023-02-22T07:43:22;7.70;99.90
56725;DHT22;42608;52.776;6.968;2023-02-22T07:45:51;7.80;99.90
56725;DHT22;42608;52.776;6.968;2023-02-22T07:48:18;7.70;99.90
56725;DHT22;42608;52.776;6.968;2023-02-22T07:50:44;7.70;99.90
56725;DHT22;42608;52.776;6.968;2023-02-22T07:53:16;7.80;99.90
56725;DHT22;42608;52.776;6.968;2023-02-22T07:55:43;7.80;99.90
56725;DHT22;42608;52.776;6.968;2023-02-22T07:58:11;7.80;99.90
56725;DHT22;42608;52.776;6.968;2023-02-22T08:00:39;7.80;99.90
56725;DHT22;42608;52.776;6.968;2023-02-22T08:03:07;7.80;99.90
56725;DHT22;42608;52.776;6.968;2023-02-22T08:05:35;7.80;99.90
56725;DHT22;42608;52.776;6.968;2023-02-22T08:08:02;7.80;99.90
56725;DHT22;42608;52.776;6.968;2023-02-22T08:10:28;7.90;99.90
56725;DHT22;42608;52.776;6.968;2023-02-22T08:12:55;7.90;99.90
56725;DHT22;42608;52.776;6.968;2023-02-22T08:15:25;7.90;99.90
56725;DHT22;42608;52.776;6.968;2023-02-22T08:17:53;7.80;99.90
56725;DHT22;42608;52.776;6.968;2023-02-22T08:20:19;7.90;99.90
56725;DHT22;42608;52.776;6.968;2023-02-22T08:22:46;7.90;99.90
56725;DHT22;42608;52.776;6.968;2023-02-22T08:25:13;7.90;99.90
56725;DHT22;42608;52.776;6.968;2023-02-22T08:27:40;7.80;99.90
56725;DHT22;42608;52.776;6.968;2023-02-22T08:30:06;7.80;99.90
56725;DHT22;42608;52.776;6.968;2023-02-22T08:32:33;7.80;99.90
56725;DHT22;42608;52.776;6.968;2023-02-22T08:35:01;7.80;99.90
56725;DHT22;42608;52.776;6.968;2023-02-22T08:37:26;7.80;99.90
56725;DHT22;42608;52.776;6.968;2023-02-22T08:39:53;7.70;99.90
56725;DHT22;42608;52.776;6.968;2023-02-22T08:42:20;7.70;99.90
56725;DHT22;42608;52.776;6.968;2023-02-22T08:44:46;7.70;99.90
56725;DHT22;42608;52.776;6.968;2023-02-22T08:47:12;7.60;99.90
56725;DHT22;42608;52.776;6.968;2023-02-22T08:49:37;7.60;99.90
56725;DHT22;42608;52.776;6.968;2023-02-22T08:52:03;7.60;99.90
56725;DHT22;42608;52.776;6.968;2023-02-22T08:54:29;7.60;99.90
56725;DHT22;42608;52.776;6.968;2023-02-22T08:56:56;7.60;99.90
56725;DHT22;42608;52.776;6.968;2023-02-22T08:59:22;7.60;99.90
56725;DHT22;42608;52.776;6.968;2023-02-22T09:01:47;7.60;99.90
56725;DHT22;42608;52.776;6.968;2023-02-22T09:04:13;7.60;99.90
56725;DHT22;42608;52.776;6.968;2023-02-22T09:06:40;7.60;99.90
56725;DHT22;42608;52.776;6.968;2023-02-22T09:09:06;7.60;99.90
56725;DHT22;42608;52.776;6.968;2023-02-22T09:11:32;7.60;99.90
56725;DHT22;42608;52.776;6.968;2023-02-22T09:13:57;7.50;99.90
56725;DHT22;42608;52.776;6.968;2023-02-22T09:16:23;7.60;99.90
56725;DHT22;42608;52.776;6.968;2023-02-22T09:18:49;7.60;99.90
56725;DHT22;42608;52.776;6.968;2023-02-22T09:21:14;7.60;99.90
56725;DHT22;42608;52.776;6.968;2023-02-22T09:23:40;7.60;99.90
56725;DHT22;42608;52.776;6.968;2023-02-22T09:26:09;7.60;99.90
56725;DHT22;42608;52.776;6.968;2023-02-22T09:28:35;7.60;99.90
56725;DHT22;42608;52.776;6.968;2023-02-22T09:31:01;7.70;99.90
56725;DHT22;42608;52.776;6.968;2023-02-22T09:33:26;7.60;99.90
56725;DHT22;42608;52.776;6.968;2023-02-22T09:35:52;7.60;99.90
56725;DHT22;42608;52.776;6.968;2023-02-22T09:38:21;7.60;99.90
56725;DHT22;42608;52.776;6.968;2023-02-22T09:41:06;7.60;99.90
56725;DHT22;42608;52.776;6.968;2023-02-22T09:46:17;7.60;99.90
56725;DHT22;42608;52.776;6.968;2023-02-22T09:49:05;7.60;99.90
56725;DHT22;42608;52.776;6.968;2023-02-22T09:54:45;7.70;99.90
56725;DHT22;42608;52.776;6.968;2023-02-22T09:57:27;7.60;99.90
56725;DHT22;42608;52.776;6.968;2023-02-22T10:05:21;7.70;99.90
56725;DHT22;42608;52.776;6.968;2023-02-22T10:08:00;7.70;99.90
56725;DHT22;42608;52.776;6.968;2023-02-22T10:10:34;7.70;99.90
56725;DHT22;42608;52.776;6.968;2023-02-22T10:13:21;7.70;99.90
56725;DHT22;42608;52.776;6.968;2023-02-22T10:16:04;7.80;99.90
56725;DHT22;42608;52.776;6.968;2023-02-22T10:24:02;7.70;99.90
56725;DHT22;42608;52.776;6.968;2023-02-22T10:26:35;7.70;99.90
56725;DHT22;42608;52.776;6.968;2023-02-22T10:31:56;7.80;99.90
56725;DHT22;42608;52.776;6.968;2023-02-22T10:34:28;7.80;99.90
56725;DHT22;42608;52.776;6.968;2023-02-22T10:37:07;7.90;99.90
56725;DHT22;42608;52.776;6.968;2023-02-22T10:39:41;7.90;99.90
56725;DHT22;42608;52.776;6.968;2023-02-22T10:42:07;7.90;99.90
56725;DHT22;42608;52.776;6.968;2023-02-22T10:44:34;7.90;99.90
56725;DHT22;42608;52.776;6.968;2023-02-22T10:47:02;7.90;99.90
56725;DHT22;42608;52.776;6.968;2023-02-22T10:49:56;8.00;99.90
56725;DHT22;42608;52.776;6.968;2023-02-22T10:52:26;8.10;99.90
56725;DHT22;42608;52.776;6.968;2023-02-22T10:54:55;8.00;99.90
56725;DHT22;42608;52.776;6.968;2023-02-22T10:57:25;8.00;99.90
56725;DHT22;42608;52.776;6.968;2023-02-22T10:59:52;8.00;99.90
56725;DHT22;42608;52.776;6.968;2023-02-22T11:02:30;8.00;99.90
56725;DHT22;42608;52.776;6.968;2023-02-22T11:04:58;8.10;99.90
56725;DHT22;42608;52.776;6.968;2023-02-22T11:07:33;8.10;99.90
56725;DHT22;42608;52.776;6.968;2023-02-22T11:12:35;8.10;99.90
56725;DHT22;42608;52.776;6.968;2023-02-22T11:17:47;8.20;99.90
56725;DHT22;42608;52.776;6.968;2023-02-22T11:22:54;8.20;99.90
56725;DHT22;42608;52.776;6.968;2023-02-22T11:25:25;8.20;99.90
56725;DHT22;42608;52.776;6.968;2023-02-22T11:27:53;8.20;99.90
56725;DHT22;42608;52.776;6.968;2023-02-22T11:30:28;8.30;99.90
56725;DHT22;42608;52.776;6.968;2023-02-22T11:35:30;8.30;99.90
56725;DHT22;42608;52.776;6.968;2023-02-22T11:38:33;8.30;99.90
56725;DHT22;42608;52.776;6.968;2023-02-22T11:41:10;8.30;99.90
56725;DHT22;42608;52.776;6.968;2023-02-22T11:43:39;8.30;99.90
56725;DHT22;42608;52.776;6.968;2023-02-22T11:46:13;8.30;99.90
56725;DHT22;42608;52.776;6.968;2023-02-22T11:48:44;8.40;99.90
56725;DHT22;42608;52.776;6.968;2023-02-22T11:51:17;8.40;99.90
56725;DHT22;42608;52.776;6.968;2023-02-22T12:11:01;8.60;99.90
56725;DHT22;42608;52.776;6.968;2023-02-22T12:16:20;8.60;99.90
56725;DHT22;42608;52.776;6.968;2023-02-22T12:19:03;8.60;99.90
56725;DHT22;42608;52.776;6.968;2023-02-22T12:21:32;8.70;99.90
56725;DHT22;42608;52.776;6.968;2023-02-22T12:24:05;8.70;99.90
56725;DHT22;42608;52.776;6.968;2023-02-22T12:26:47;8.70;99.90
56725;DHT22;42608;52.776;6.968;2023-02-22T12:32:14;8.70;99.90
56725;DHT22;42608;52.776;6.968;2023-02-22T12:35:21;8.70;99.90
56725;DHT22;42608;52.776;6.968;2023-02-22T12:40:45;8.70;99.90
56725;DHT22;42608;52.776;6.968;2023-02-22T12:43:25;8.70;99.90
56725;DHT22;42608;52.776;6.968;2023-02-22T12:46:33;8.70;99.90
56725;DHT22;42608;52.776;6.968;2023-02-22T12:49:47;8.70;99.90
56725;DHT22;42608;52.776;6.968;2023-02-22T12:52:03;8.80;99.90
56725;DHT22;42608;52.776;6.968;2023-02-22T12:57:41;8.70;99.90
56725;DHT22;42608;52.776;6.968;2023-02-22T13:00:16;8.80;99.90
56725;DHT22;42608;52.776;6.968;2023-02-22T13:05:31;8.90;99.90
56725;DHT22;42608;52.776;6.968;2023-02-22T13:10:33;9.00;99.90
56725;DHT22;42608;52.776;6.968;2023-02-22T13:26:52;9.20;99.90
56725;DHT22;42608;52.776;6.968;2023-02-22T13:29:26;9.20;99.90
56725;DHT22;42608;52.776;6.968;2023-02-22T13:53:51;9.50;99.90
56725;DHT22;42608;52.776;6.968;2023-02-22T13:56:24;9.50;99.90
56725;DHT22;42608;52.776;6.968;2023-02-22T13:58:59;9.60;99.90
56725;DHT22;42608;52.776;6.968;2023-02-22T14:01:45;9.60;99.90
56725;DHT22;42608;52.776;6.968;2023-02-22T14:06:57;9.70;99.90
56725;DHT22;42608;52.776;6.968;2023-02-22T14:09:46;9.70;99.90
56725;DHT22;42608;52.776;6.968;2023-02-22T14:17:45;9.80;99.90
56725;DHT22;42608;52.776;6.968;2023-02-22T14:20:21;9.80;99.90
56725;DHT22;42608;52.776;6.968;2023-02-22T14:22:54;9.80;99.90
56725;DHT22;42608;52.776;6.968;2023-02-22T14:25:50;9.80;99.90
56725;DHT22;42608;52.776;6.968;2023-02-22T14:28:39;9.90;99.90
56725;DHT22;42608;52.776;6.968;2023-02-22T14:33:49;9.90;99.90
56725;DHT22;42608;52.776;6.968;2023-02-22T14:36:15;9.90;99.90
56725;DHT22;42608;52.776;6.968;2023-02-22T14:38:44;10.00;99.90
56725;DHT22;42608;52.776;6.968;2023-02-22T14:41:12;10.00;99.90
56725;DHT22;42608;52.776;6.968;2023-02-22T14:43:39;10.00;99.90
56725;DHT22;42608;52.776;6.968;2023-02-22T14:46:07;10.00;99.90
56725;DHT22;42608;52.776;6.968;2023-02-22T14:48:39;9.90;99.90
56725;DHT22;42608;52.776;6.968;2023-02-22T14:51:12;10.00;99.90
56725;DHT22;42608;52.776;6.968;2023-02-22T14:53:46;10.00;99.90
56725;DHT22;42608;52.776;6.968;2023-02-22T14:56:21;10.00;99.90
56725;DHT22;42608;52.776;6.968;2023-02-22T14:58:57;10.00;99.90
56725;DHT22;42608;52.776;6.968;2023-02-22T15:01:34;10.00;99.90
56725;DHT22;42608;52.776;6.968;2023-02-22T15:06:45;10.00;99.90
56725;DHT22;42608;52.776;6.968;2023-02-22T15:12:09;10.10;99.90
56725;DHT22;42608;52.776;6.968;2023-02-22T15:14:38;10.10;99.90
56725;DHT22;42608;52.776;6.968;2023-02-22T15:17:20;10.10;99.90
56725;DHT22;42608;52.776;6.968;2023-02-22T15:19:47;10.10;99.90
56725;DHT22;42608;52.776;6.968;2023-02-22T15:22:25;10.10;99.90
56725;DHT22;42608;52.776;6.968;2023-02-22T15:25:04;10.10;99.90
56725;DHT22;42608;52.776;6.968;2023-02-22T15:27:30;10.10;99.90
56725;DHT22;42608;52.776;6.968;2023-02-22T15:30:07;10.10;99.90
56725;DHT22;42608;52.776;6.968;2023-02-22T15:32:39;10.10;99.90
56725;DHT22;42608;52.776;6.968;2023-02-22T15:35:12;10.10;99.90
56725;DHT22;42608;52.776;6.968;2023-02-22T15:37:38;10.10;99.90
56725;DHT22;42608;52.776;6.968;2023-02-22T15:40:11;10.10;99.90
56725;DHT22;42608;52.776;6.968;2023-02-22T15:42:57;10.10;99.90
56725;DHT22;42608;52.776;6.968;2023-02-22T15:45:23;10.10;99.90
56725;DHT22;42608;52.776;6.968;2023-02-22T15:47:51;10.00;99.90
56725;DHT22;42608;52.776;6.968;2023-02-22T15:50:27;10.10;99.90
56725;DHT22;42608;52.776;6.968;2023-02-22T15:55:38;10.10;99.90
56725;DHT22;42608;52.776;6.968;2023-02-22T16:00:42;10.10;99.90
56725;DHT22;42608;52.776;6.968;2023-02-22T16:03:12;10.10;99.90
56725;DHT22;42608;52.776;6.968;2023-02-22T16:05:47;10.10;99.90
56725;DHT22;42608;52.776;6.968;2023-02-22T16:10:56;10.10;99.90
56725;DHT22;42608;52.776;6.968;2023-02-22T16:13:24;10.10;99.90
56725;DHT22;42608;52.776;6.968;2023-02-22T16:15:56;10.10;99.90
56725;DHT22;42608;52.776;6.968;2023-02-22T16:18:37;10.10;99.90
56725;DHT22;42608;52.776;6.968;2023-02-22T16:21:11;10.10;99.90
56725;DHT22;42608;52.776;6.968;2023-02-22T16:23:48;10.10;99.90
56725;DHT22;42608;52.776;6.968;2023-02-22T16:26:29;10.00;99.90
56725;DHT22;42608;52.776;6.968;2023-02-22T16:29:01;10.10;99.90
56725;DHT22;42608;52.776;6.968;2023-02-22T16:31:38;10.00;99.90
56725;DHT22;42608;52.776;6.968;2023-02-22T16:34:06;10.00;99.90
56725;DHT22;42608;52.776;6.968;2023-02-22T16:36:40;10.00;99.90
56725;DHT22;42608;52.776;6.968;2023-02-22T16:39:24;10.00;99.90
56725;DHT22;42608;52.776;6.968;2023-02-22T16:41:52;10.00;99.90
56725;DHT22;42608;52.776;6.968;2023-02-22T16:44:19;9.90;99.90
56725;DHT22;42608;52.776;6.968;2023-02-22T16:46:45;10.00;99.90
56725;DHT22;42608;52.776;6.968;2023-02-22T16:49:12;10.00;99.90
56725;DHT22;42608;52.776;6.968;2023-02-22T16:51:44;9.90;99.90
56725;DHT22;42608;52.776;6.968;2023-02-22T16:54:15;9.90;99.90
56725;DHT22;42608;52.776;6.968;2023-02-22T16:56:43;9.90;99.90
56725;DHT22;42608;52.776;6.968;2023-02-22T16:59:12;9.90;99.90
56725;DHT22;42608;52.776;6.968;2023-02-22T17:01:39;9.80;99.90
56725;DHT22;42608;52.776;6.968;2023-02-22T17:04:25;9.80;99.90
56725;DHT22;42608;52.776;6.968;2023-02-22T17:06:53;9.80;99.90
56725;DHT22;42608;52.776;6.968;2023-02-22T17:09:18;9.80;99.90
56725;DHT22;42608;52.776;6.968;2023-02-22T17:11:45;9.80;99.90
56725;DHT22;42608;52.776;6.968;2023-02-22T17:14:20;9.70;99.90
56725;DHT22;42608;52.776;6.968;2023-02-22T17:16:50;9.80;99.90
56725;DHT22;42608;52.776;6.968;2023-02-22T17:19:20;9.70;99.90
56725;DHT22;42608;52.776;6.968;2023-02-22T17:21:47;9.70;99.90
56725;DHT22;42608;52.776;6.968;2023-02-22T17:24:14;9.70;99.90
56725;DHT22;42608;52.776;6.968;2023-02-22T17:26:41;9.70;99.90
56725;DHT22;42608;52.776;6.968;2023-02-22T17:29:07;9.70;99.90
56725;DHT22;42608;52.776;6.968;2023-02-22T17:31:33;9.70;99.90
56725;DHT22;42608;52.776;6.968;2023-02-22T17:34:01;9.70;99.90
56725;DHT22;42608;52.776;6.968;2023-02-22T17:36:28;9.70;99.90
56725;DHT22;42608;52.776;6.968;2023-02-22T17:38:54;9.60;99.90
56725;DHT22;42608;52.776;6.968;2023-02-22T17:41:19;9.60;99.90
56725;DHT22;42608;52.776;6.968;2023-02-22T17:43:45;9.60;99.90
56725;DHT22;42608;52.776;6.968;2023-02-22T17:46:11;9.60;99.90
56725;DHT22;42608;52.776;6.968;2023-02-22T17:48:37;9.60;99.90
56725;DHT22;42608;52.776;6.968;2023-02-22T17:51:07;9.60;99.90
56725;DHT22;42608;52.776;6.968;2023-02-22T17:53:34;9.60;99.90
56725;DHT22;42608;52.776;6.968;2023-02-22T17:56:04;9.60;99.90
56725;DHT22;42608;52.776;6.968;2023-02-22T17:58:31;9.60;99.90
56725;DHT22;42608;52.776;6.968;2023-02-22T18:00:57;9.50;99.90
56725;DHT22;42608;52.776;6.968;2023-02-22T18:03:24;9.50;99.90
56725;DHT22;42608;52.776;6.968;2023-02-22T18:05:56;9.50;99.90
56725;DHT22;42608;52.776;6.968;2023-02-22T18:08:23;9.50;99.90
56725;DHT22;42608;52.776;6.968;2023-02-22T18:10:49;9.50;99.90
56725;DHT22;42608;52.776;6.968;2023-02-22T18:13:25;9.50;99.90
56725;DHT22;42608;52.776;6.968;2023-02-22T18:15:51;9.50;99.90
56725;DHT22;42608;52.776;6.968;2023-02-22T18:18:17;9.50;99.90
56725;DHT22;42608;52.776;6.968;2023-02-22T18:20:44;9.50;99.90
56725;DHT22;42608;52.776;6.968;2023-02-22T18:23:15;9.40;99.90
56725;DHT22;42608;52.776;6.968;2023-02-22T18:25:46;9.40;99.90
56725;DHT22;42608;52.776;6.968;2023-02-22T18:28:16;9.40;99.90
56725;DHT22;42608;52.776;6.968;2023-02-22T18:30:43;9.40;99.90
56725;DHT22;42608;52.776;6.968;2023-02-22T18:33:09;9.40;99.90
56725;DHT22;42608;52.776;6.968;2023-02-22T18:35:45;9.40;99.90
56725;DHT22;42608;52.776;6.968;2023-02-22T18:38:14;9.40;99.90